North Salem, Indiana
Current Conditions -  °F | °C
As of 9:53 AM on Saturday 22 Nov 2014 (Local Time) from KEYE Reporting Station
Overcast Overcast  
Wind Chill: 42°   Ceiling: 5500
Heat Index: 46°   Visibility: 10mi
Dew Point: 37°   Wind: 7mph
Humidity: 71%   Direction: 170°S
Pressure: 30.16"   Gusts: NA
Location:  39.86°N, 86.64°W
Report Text: KEYE 221453Z AUTO 17006KT 10SM OVC055 08/03 A3016 RMK AO2 SLP218 T00780028 58009
Loading
Personal Weather Stations






























Interactive Weather Map New forecast layout! Learn more

10-Day Weather Forecast

Advertisements
Track Severe Weather on mobile